ORT04A EHAM-EGLF
Flight info
| Callsign | ORT04A |
|---|---|
| Flight time | 0h 52m |
| Altitude | 24000 |
| Route | IDRID L980 LAM L179 ICTAM Q63 CPT |
| Aircraft | C25C/L-SDE2E3FGHRWXY/LB1 |
Departure
| Time | 2026-05-07 12:42 |
|---|---|
| Airport | Amsterdam Airport Schiphol (EHAM) |
Arrival
| Time | 2026-05-07 13:35 |
|---|---|
| Airport | Farnborough Airport (EGLF) |
| Time | Latitude | Longitude | Altitude | Speed | Heading |
|---|---|---|---|---|---|
| 2026-05-07 12:24 | 52.31088 | 4.80431 | -13 ft | 0 kts | 317° |
| 2026-05-07 12:35 | 52.31095 | 4.80421 | -13 ft | 4 kts | 317° |
| 2026-05-07 12:35 | 52.31121 | 4.80418 | -13 ft | 4 kts | 45° |
| 2026-05-07 12:35 | 52.31147 | 4.80458 | -13 ft | 7 kts | 40° |
| 2026-05-07 12:35 | 52.31196 | 4.80524 | -13 ft | 10 kts | 49° |
| 2026-05-07 12:36 | 52.31247 | 4.80537 | -13 ft | 7 kts | 293° |
| 2026-05-07 12:36 | 52.31248 | 4.80525 | -13 ft | 0 kts | 271° |
| 2026-05-07 12:36 | 52.31248 | 4.80511 | -13 ft | 5 kts | 271° |
| 2026-05-07 12:36 | 52.31238 | 4.80415 | -13 ft | 11 kts | 228° |
| 2026-05-07 12:37 | 52.31181 | 4.80331 | -13 ft | 12 kts | 221° |
| 2026-05-07 12:37 | 52.31118 | 4.80241 | -13 ft | 13 kts | 221° |
| 2026-05-07 12:37 | 52.31050 | 4.80146 | -13 ft | 13 kts | 220° |
| 2026-05-07 12:37 | 52.30979 | 4.80042 | -13 ft | 14 kts | 221° |
| 2026-05-07 12:38 | 52.30904 | 4.79936 | -13 ft | 15 kts | 223° |
| 2026-05-07 12:38 | 52.30826 | 4.79823 | -13 ft | 15 kts | 222° |
| 2026-05-07 12:38 | 52.30745 | 4.79710 | -13 ft | 16 kts | 219° |
| 2026-05-07 12:38 | 52.30662 | 4.79590 | -13 ft | 16 kts | 223° |
| 2026-05-07 12:39 | 52.30576 | 4.79465 | -13 ft | 17 kts | 222° |
| 2026-05-07 12:39 | 52.30485 | 4.79336 | -13 ft | 18 kts | 222° |
| 2026-05-07 12:39 | 52.30390 | 4.79202 | -13 ft | 18 kts | 221° |
| 2026-05-07 12:39 | 52.30295 | 4.79063 | -13 ft | 19 kts | 221° |
| 2026-05-07 12:40 | 52.30196 | 4.78921 | -13 ft | 19 kts | 219° |
| 2026-05-07 12:40 | 52.30097 | 4.78779 | -13 ft | 19 kts | 220° |
| 2026-05-07 12:40 | 52.30033 | 4.78651 | -13 ft | 12 kts | 269° |
| 2026-05-07 12:40 | 52.30079 | 4.78556 | -11 ft | 9 kts | 312° |
| 2026-05-07 12:41 | 52.30120 | 4.78479 | -11 ft | 7 kts | 321° |
| 2026-05-07 12:41 | 52.30132 | 4.78486 | -12 ft | 1 kts | 53° |
| 2026-05-07 12:41 | 52.30134 | 4.78490 | -12 ft | 0 kts | 47° |
| 2026-05-07 12:41 | 52.30135 | 4.78491 | -12 ft | 0 kts | 40° |
| 2026-05-07 12:42 | 52.30142 | 4.78501 | -12 ft | 16 kts | 41° |
| 2026-05-07 12:42 | 52.30527 | 4.79052 | -14 ft | 125 kts | 42° |
| 2026-05-07 12:42 | 52.31396 | 4.80274 | 210 ft | 191 kts | 41° |
| 2026-05-07 12:42 | 52.32392 | 4.81718 | 1339 ft | 194 kts | 42° |
| 2026-05-07 12:43 | 52.33437 | 4.83305 | 2049 ft | 221 kts | 42° |
| 2026-05-07 12:43 | 52.34789 | 4.84570 | 3000 ft | 230 kts | 9° |
| 2026-05-07 12:43 | 52.36292 | 4.84014 | 4329 ft | 225 kts | 326° |
| 2026-05-07 12:43 | 52.37185 | 4.81945 | 5429 ft | 230 kts | 284° |
| 2026-05-07 12:44 | 52.37410 | 4.79334 | 6509 ft | 234 kts | 274° |
| 2026-05-07 12:44 | 52.37397 | 4.76652 | 7508 ft | 238 kts | 265° |
| 2026-05-07 12:44 | 52.37187 | 4.73953 | 8531 ft | 241 kts | 260° |
| 2026-05-07 12:44 | 52.36892 | 4.71223 | 9610 ft | 245 kts | 258° |
| 2026-05-07 12:45 | 52.36567 | 4.68461 | 10640 ft | 249 kts | 259° |
| 2026-05-07 12:45 | 52.36264 | 4.65637 | 11671 ft | 253 kts | 260° |
| 2026-05-07 12:45 | 52.35976 | 4.62759 | 12650 ft | 263 kts | 261° |
| 2026-05-07 12:45 | 52.35683 | 4.59729 | 13515 ft | 275 kts | 261° |
| 2026-05-07 12:46 | 52.35392 | 4.56649 | 14508 ft | 279 kts | 261° |
| 2026-05-07 12:46 | 52.35096 | 4.53501 | 15598 ft | 281 kts | 261° |
| 2026-05-07 12:46 | 52.34797 | 4.50315 | 16691 ft | 285 kts | 261° |
| 2026-05-07 12:46 | 52.34493 | 4.47090 | 17783 ft | 289 kts | 261° |
| 2026-05-07 12:47 | 52.34181 | 4.43821 | 18769 ft | 293 kts | 261° |
| 2026-05-07 12:47 | 52.33864 | 4.40504 | 19681 ft | 297 kts | 261° |
| 2026-05-07 12:47 | 52.33540 | 4.37143 | 20573 ft | 301 kts | 261° |
| 2026-05-07 12:47 | 52.33210 | 4.33740 | 21468 ft | 305 kts | 260° |
| 2026-05-07 12:48 | 52.32874 | 4.30287 | 22332 ft | 309 kts | 260° |
| 2026-05-07 12:48 | 52.32532 | 4.26783 | 23184 ft | 314 kts | 260° |
| 2026-05-07 12:48 | 52.32182 | 4.23226 | 23938 ft | 319 kts | 260° |
| 2026-05-07 12:48 | 52.31818 | 4.19576 | 24096 ft | 341 kts | 260° |
| 2026-05-07 12:49 | 52.31291 | 4.15677 | 24102 ft | 362 kts | 247° |
| 2026-05-07 12:49 | 52.29949 | 4.12092 | 24111 ft | 379 kts | 233° |
| 2026-05-07 12:49 | 52.28289 | 4.08642 | 24107 ft | 393 kts | 231° |
| 2026-05-07 12:49 | 52.26514 | 4.05162 | 24104 ft | 404 kts | 230° |
| 2026-05-07 12:50 | 52.24685 | 4.01603 | 24103 ft | 412 kts | 231° |
| 2026-05-07 12:50 | 52.22905 | 3.97891 | 24102 ft | 419 kts | 233° |
| 2026-05-07 12:50 | 52.21138 | 3.94058 | 24097 ft | 420 kts | 232° |
| 2026-05-07 12:50 | 52.19364 | 3.90314 | 24100 ft | 417 kts | 232° |
| 2026-05-07 12:51 | 52.17585 | 3.86617 | 24097 ft | 411 kts | 232° |
| 2026-05-07 12:51 | 52.15845 | 3.83026 | 24100 ft | 407 kts | 231° |
| 2026-05-07 12:51 | 52.14098 | 3.79429 | 24097 ft | 403 kts | 232° |
| 2026-05-07 12:51 | 52.12367 | 3.75861 | 24089 ft | 400 kts | 232° |
| 2026-05-07 12:52 | 52.10649 | 3.72321 | 24086 ft | 397 kts | 232° |
| 2026-05-07 12:52 | 52.08946 | 3.68811 | 24087 ft | 394 kts | 232° |
| 2026-05-07 12:52 | 52.07250 | 3.65318 | 24085 ft | 392 kts | 232° |
| 2026-05-07 12:52 | 52.05567 | 3.61852 | 24092 ft | 390 kts | 232° |
| 2026-05-07 12:53 | 52.04454 | 3.59563 | 24090 ft | 389 kts | 232° |
| 2026-05-07 12:53 | 52.02779 | 3.56122 | 24087 ft | 387 kts | 232° |
| 2026-05-07 12:53 | 52.01112 | 3.52698 | 24089 ft | 386 kts | 232° |
| 2026-05-07 12:53 | 51.99450 | 3.49282 | 24094 ft | 385 kts | 232° |
| 2026-05-07 12:54 | 51.97825 | 3.45822 | 24089 ft | 387 kts | 234° |
| 2026-05-07 12:54 | 51.96282 | 3.42238 | 24084 ft | 389 kts | 235° |
| 2026-05-07 12:54 | 51.94711 | 3.38654 | 24088 ft | 390 kts | 234° |
| 2026-05-07 12:54 | 51.93101 | 3.35093 | 24084 ft | 392 kts | 233° |
| 2026-05-07 12:55 | 51.91462 | 3.31563 | 24084 ft | 393 kts | 233° |
| 2026-05-07 12:55 | 51.89829 | 3.27999 | 24086 ft | 394 kts | 233° |
| 2026-05-07 12:55 | 51.88204 | 3.24432 | 24083 ft | 394 kts | 233° |
| 2026-05-07 12:55 | 51.86597 | 3.20848 | 24104 ft | 394 kts | 237° |
| 2026-05-07 12:56 | 51.85385 | 3.16866 | 24090 ft | 395 kts | 246° |
| 2026-05-07 12:56 | 51.84512 | 3.12650 | 24083 ft | 396 kts | 257° |
| 2026-05-07 12:56 | 51.84130 | 3.08233 | 24088 ft | 396 kts | 264° |
| 2026-05-07 12:56 | 51.83912 | 3.03785 | 24090 ft | 397 kts | 265° |
| 2026-05-07 12:57 | 51.83731 | 2.99329 | 24092 ft | 397 kts | 266° |
| 2026-05-07 12:57 | 51.83523 | 2.94882 | 24094 ft | 397 kts | 264° |
| 2026-05-07 12:57 | 51.83202 | 2.90450 | 24091 ft | 397 kts | 262° |
| 2026-05-07 12:57 | 51.82863 | 2.86001 | 24094 ft | 399 kts | 263° |
| 2026-05-07 12:58 | 51.82550 | 2.81555 | 24096 ft | 397 kts | 263° |
| 2026-05-07 12:58 | 51.82252 | 2.77121 | 24090 ft | 396 kts | 263° |
| 2026-05-07 12:58 | 51.81965 | 2.72763 | 24090 ft | 394 kts | 263° |
| 2026-05-07 12:58 | 51.81680 | 2.68361 | 24088 ft | 393 kts | 263° |
| 2026-05-07 12:59 | 51.81395 | 2.63972 | 24087 ft | 392 kts | 263° |
| 2026-05-07 12:59 | 51.81100 | 2.59596 | 24089 ft | 391 kts | 263° |
| 2026-05-07 12:59 | 51.80797 | 2.55233 | 24089 ft | 390 kts | 263° |
| 2026-05-07 12:59 | 51.80491 | 2.50864 | 24085 ft | 390 kts | 263° |
| 2026-05-07 13:00 | 51.80184 | 2.46521 | 24085 ft | 389 kts | 263° |
| 2026-05-07 13:00 | 51.79876 | 2.42181 | 24084 ft | 389 kts | 263° |
| 2026-05-07 13:00 | 51.79567 | 2.37841 | 24087 ft | 388 kts | 263° |
| 2026-05-07 13:00 | 51.79257 | 2.33503 | 24087 ft | 388 kts | 263° |
| 2026-05-07 13:01 | 51.78947 | 2.29176 | 24083 ft | 388 kts | 263° |
| 2026-05-07 13:01 | 51.78637 | 2.24850 | 24086 ft | 387 kts | 263° |
| 2026-05-07 13:01 | 51.78339 | 2.20576 | 24087 ft | 387 kts | 263° |
| 2026-05-07 13:01 | 51.78068 | 2.16250 | 24089 ft | 387 kts | 263° |
| 2026-05-07 13:02 | 51.77814 | 2.11919 | 24087 ft | 387 kts | 264° |
| 2026-05-07 13:02 | 51.77567 | 2.07592 | 24087 ft | 387 kts | 264° |
| 2026-05-07 13:02 | 51.77321 | 2.03259 | 24085 ft | 387 kts | 264° |
| 2026-05-07 13:02 | 51.77070 | 1.98923 | 24086 ft | 387 kts | 264° |
| 2026-05-07 13:03 | 51.76819 | 1.94654 | 24084 ft | 386 kts | 264° |
| 2026-05-07 13:03 | 51.76560 | 1.90335 | 24086 ft | 386 kts | 263° |
| 2026-05-07 13:03 | 51.76300 | 1.86022 | 24089 ft | 386 kts | 263° |
| 2026-05-07 13:03 | 51.76036 | 1.81702 | 24088 ft | 386 kts | 263° |
| 2026-05-07 13:04 | 51.75771 | 1.77389 | 24086 ft | 386 kts | 263° |
| 2026-05-07 13:04 | 51.75504 | 1.73074 | 24082 ft | 386 kts | 263° |
| 2026-05-07 13:04 | 51.75235 | 1.68758 | 24079 ft | 386 kts | 263° |
| 2026-05-07 13:04 | 51.74965 | 1.64449 | 24078 ft | 386 kts | 263° |
| 2026-05-07 13:05 | 51.74694 | 1.60149 | 24080 ft | 385 kts | 263° |
| 2026-05-07 13:05 | 51.74420 | 1.55836 | 24084 ft | 385 kts | 263° |
| 2026-05-07 13:05 | 51.74146 | 1.51534 | 24080 ft | 385 kts | 263° |
| 2026-05-07 13:05 | 51.73873 | 1.47291 | 24082 ft | 385 kts | 263° |
| 2026-05-07 13:06 | 51.73596 | 1.42993 | 24080 ft | 385 kts | 263° |
| 2026-05-07 13:06 | 51.73316 | 1.38694 | 24080 ft | 385 kts | 263° |
| 2026-05-07 13:06 | 51.73036 | 1.34397 | 24079 ft | 385 kts | 263° |
| 2026-05-07 13:06 | 51.72754 | 1.30102 | 24077 ft | 385 kts | 263° |
| 2026-05-07 13:07 | 51.72471 | 1.25806 | 24079 ft | 385 kts | 263° |
| 2026-05-07 13:07 | 51.72186 | 1.21515 | 24075 ft | 385 kts | 263° |
| 2026-05-07 13:07 | 51.71899 | 1.17217 | 24078 ft | 385 kts | 263° |
| 2026-05-07 13:07 | 51.71611 | 1.12929 | 24077 ft | 385 kts | 263° |
| 2026-05-07 13:08 | 51.71321 | 1.08649 | 24072 ft | 385 kts | 263° |
| 2026-05-07 13:08 | 51.71029 | 1.04361 | 24073 ft | 385 kts | 263° |
| 2026-05-07 13:08 | 51.70736 | 1.00067 | 24075 ft | 385 kts | 263° |
| 2026-05-07 13:08 | 51.70445 | 0.95841 | 24076 ft | 385 kts | 263° |
| 2026-05-07 13:09 | 51.70148 | 0.91550 | 24079 ft | 385 kts | 263° |
| 2026-05-07 13:09 | 51.69850 | 0.87257 | 24079 ft | 385 kts | 263° |
| 2026-05-07 13:09 | 51.69552 | 0.82976 | 24078 ft | 385 kts | 263° |
| 2026-05-07 13:09 | 51.69260 | 0.78807 | 24082 ft | 385 kts | 262° |
| 2026-05-07 13:10 | 51.68957 | 0.74524 | 24084 ft | 385 kts | 262° |
| 2026-05-07 13:10 | 51.68652 | 0.70230 | 24085 ft | 385 kts | 262° |
| 2026-05-07 13:10 | 51.68348 | 0.65956 | 24083 ft | 385 kts | 262° |
| 2026-05-07 13:10 | 51.68041 | 0.61664 | 24081 ft | 385 kts | 262° |
| 2026-05-07 13:11 | 51.67734 | 0.57382 | 24084 ft | 385 kts | 262° |
| 2026-05-07 13:11 | 51.67424 | 0.53101 | 24084 ft | 385 kts | 262° |
| 2026-05-07 13:11 | 51.67115 | 0.48875 | 24078 ft | 385 kts | 262° |
| 2026-05-07 13:11 | 51.66800 | 0.44593 | 24078 ft | 385 kts | 262° |
| 2026-05-07 13:12 | 51.66484 | 0.40315 | 24079 ft | 385 kts | 262° |
| 2026-05-07 13:12 | 51.66168 | 0.36036 | 24076 ft | 385 kts | 262° |
| 2026-05-07 13:12 | 51.65852 | 0.31762 | 24077 ft | 385 kts | 262° |
| 2026-05-07 13:12 | 51.65533 | 0.27481 | 24080 ft | 385 kts | 262° |
| 2026-05-07 13:13 | 51.65214 | 0.23206 | 24081 ft | 385 kts | 262° |
| 2026-05-07 13:13 | 51.64891 | 0.18927 | 24082 ft | 385 kts | 262° |
| 2026-05-07 13:13 | 51.64562 | 0.14655 | 24077 ft | 385 kts | 261° |
| 2026-05-07 13:13 | 51.64151 | 0.10391 | 24082 ft | 384 kts | 259° |
| 2026-05-07 13:14 | 51.63645 | 0.06175 | 24088 ft | 384 kts | 258° |
| 2026-05-07 13:14 | 51.63159 | 0.01931 | 24086 ft | 385 kts | 259° |
| 2026-05-07 13:14 | 51.62696 | -0.02313 | 24081 ft | 385 kts | 259° |
| 2026-05-07 13:14 | 51.62246 | -0.06513 | 24079 ft | 385 kts | 259° |
| 2026-05-07 13:15 | 51.61921 | -0.09600 | 24077 ft | 385 kts | 259° |
| 2026-05-07 13:15 | 51.61495 | -0.13858 | 24078 ft | 385 kts | 261° |
| 2026-05-07 13:15 | 51.61148 | -0.18126 | 24081 ft | 385 kts | 263° |
| 2026-05-07 13:16 | 51.60859 | -0.22401 | 24081 ft | 385 kts | 262° |
| 2026-05-07 13:16 | 51.60489 | -0.26655 | 24083 ft | 384 kts | 260° |
| 2026-05-07 13:16 | 51.60099 | -0.30895 | 24083 ft | 384 kts | 261° |
| 2026-05-07 13:16 | 51.59777 | -0.35162 | 24080 ft | 384 kts | 262° |
| 2026-05-07 13:17 | 51.59442 | -0.39460 | 24085 ft | 384 kts | 261° |
| 2026-05-07 13:17 | 51.59056 | -0.43657 | 24079 ft | 384 kts | 261° |
| 2026-05-07 13:17 | 51.58678 | -0.47905 | 24082 ft | 384 kts | 261° |
| 2026-05-07 13:17 | 51.58327 | -0.52169 | 24082 ft | 383 kts | 262° |
| 2026-05-07 13:18 | 51.58015 | -0.56055 | 24083 ft | 383 kts | 261° |
| 2026-05-07 13:18 | 51.57658 | -0.60347 | 23758 ft | 392 kts | 261° |
| 2026-05-07 13:18 | 51.57281 | -0.64755 | 23286 ft | 402 kts | 261° |
| 2026-05-07 13:18 | 51.56889 | -0.69262 | 22799 ft | 410 kts | 261° |
| 2026-05-07 13:19 | 51.56495 | -0.73769 | 22327 ft | 410 kts | 261° |
| 2026-05-07 13:19 | 51.56103 | -0.78247 | 21750 ft | 400 kts | 261° |
| 2026-05-07 13:19 | 51.55719 | -0.82635 | 21126 ft | 394 kts | 261° |
| 2026-05-07 13:19 | 51.55338 | -0.86960 | 20526 ft | 388 kts | 261° |
| 2026-05-07 13:20 | 51.54962 | -0.91230 | 19918 ft | 383 kts | 261° |
| 2026-05-07 13:20 | 51.54590 | -0.95441 | 19331 ft | 379 kts | 261° |
| 2026-05-07 13:20 | 51.54218 | -0.99619 | 18749 ft | 375 kts | 261° |
| 2026-05-07 13:20 | 51.53849 | -1.03743 | 18146 ft | 371 kts | 261° |
| 2026-05-07 13:21 | 51.53479 | -1.07843 | 17524 ft | 369 kts | 261° |
| 2026-05-07 13:21 | 51.53112 | -1.11910 | 16897 ft | 366 kts | 261° |
| 2026-05-07 13:21 | 51.52522 | -1.15855 | 16274 ft | 362 kts | 244° |
| 2026-05-07 13:21 | 51.50991 | -1.18981 | 15674 ft | 358 kts | 218° |
| 2026-05-07 13:22 | 51.48752 | -1.20645 | 15087 ft | 356 kts | 191° |
| 2026-05-07 13:22 | 51.46331 | -1.20512 | 14516 ft | 355 kts | 165° |
| 2026-05-07 13:22 | 51.44138 | -1.18728 | 13955 ft | 355 kts | 147° |
| 2026-05-07 13:22 | 51.42076 | -1.16573 | 13350 ft | 353 kts | 149° |
| 2026-05-07 13:23 | 51.39957 | -1.14596 | 12657 ft | 353 kts | 153° |
| 2026-05-07 13:23 | 51.37776 | -1.12901 | 11952 ft | 340 kts | 155° |
| 2026-05-07 13:23 | 51.35672 | -1.11359 | 11244 ft | 324 kts | 153° |
| 2026-05-07 13:23 | 51.34010 | -1.09063 | 10560 ft | 315 kts | 127° |
| 2026-05-07 13:24 | 51.32792 | -1.06216 | 9883 ft | 306 kts | 124° |
| 2026-05-07 13:24 | 51.31647 | -1.03384 | 9132 ft | 299 kts | 123° |
| 2026-05-07 13:24 | 51.30524 | -1.00605 | 8408 ft | 295 kts | 125° |
| 2026-05-07 13:24 | 51.29345 | -0.97962 | 7738 ft | 290 kts | 127° |
| 2026-05-07 13:25 | 51.28181 | -0.95347 | 7071 ft | 287 kts | 126° |
| 2026-05-07 13:25 | 51.27101 | -0.92784 | 6398 ft | 269 kts | 124° |
| 2026-05-07 13:25 | 51.26076 | -0.90366 | 5702 ft | 258 kts | 125° |
| 2026-05-07 13:25 | 51.25076 | -0.88045 | 5096 ft | 248 kts | 125° |
| 2026-05-07 13:26 | 51.24149 | -0.85906 | 5045 ft | 220 kts | 125° |
| 2026-05-07 13:26 | 51.23503 | -0.83814 | 5051 ft | 216 kts | 101° |
| 2026-05-07 13:26 | 51.23195 | -0.81428 | 5056 ft | 223 kts | 105° |
| 2026-05-07 13:26 | 51.22748 | -0.79012 | 5056 ft | 230 kts | 108° |
| 2026-05-07 13:27 | 51.22262 | -0.76546 | 5071 ft | 236 kts | 108° |
| 2026-05-07 13:27 | 51.21811 | -0.73994 | 5070 ft | 242 kts | 104° |
| 2026-05-07 13:27 | 51.21403 | -0.71366 | 5058 ft | 245 kts | 105° |
| 2026-05-07 13:27 | 51.21030 | -0.68698 | 5054 ft | 248 kts | 93° |
| 2026-05-07 13:28 | 51.21499 | -0.66087 | 5078 ft | 250 kts | 57° |
| 2026-05-07 13:28 | 51.22497 | -0.63791 | 5065 ft | 253 kts | 53° |
| 2026-05-07 13:28 | 51.23474 | -0.61560 | 4984 ft | 234 kts | 55° |
| 2026-05-07 13:28 | 51.23846 | -0.60696 | 4875 ft | 229 kts | 55° |
| 2026-05-07 13:29 | 51.24722 | -0.58657 | 4563 ft | 218 kts | 55° |
| 2026-05-07 13:29 | 51.25568 | -0.56697 | 4272 ft | 211 kts | 55° |
| 2026-05-07 13:29 | 51.26385 | -0.54794 | 3972 ft | 206 kts | 55° |
| 2026-05-07 13:29 | 51.27411 | -0.53306 | 3669 ft | 200 kts | 18° |
| 2026-05-07 13:30 | 51.28733 | -0.53435 | 3412 ft | 192 kts | 330° |
| 2026-05-07 13:30 | 51.29838 | -0.54605 | 3116 ft | 189 kts | 323° |
| 2026-05-07 13:30 | 51.30862 | -0.55791 | 3055 ft | 177 kts | 322° |
| 2026-05-07 13:30 | 51.31804 | -0.56924 | 3076 ft | 164 kts | 321° |
| 2026-05-07 13:31 | 51.32665 | -0.58032 | 3063 ft | 154 kts | 309° |
| 2026-05-07 13:31 | 51.33117 | -0.59511 | 3052 ft | 146 kts | 291° |
| 2026-05-07 13:31 | 51.33499 | -0.61024 | 2942 ft | 151 kts | 289° |
| 2026-05-07 13:31 | 51.33393 | -0.62596 | 2903 ft | 150 kts | 232° |
| 2026-05-07 13:32 | 51.32566 | -0.63701 | 2753 ft | 157 kts | 223° |
| 2026-05-07 13:32 | 51.31866 | -0.65049 | 2536 ft | 165 kts | 234° |
| 2026-05-07 13:32 | 51.31218 | -0.66606 | 2336 ft | 167 kts | 237° |
| 2026-05-07 13:32 | 51.30685 | -0.68103 | 1985 ft | 147 kts | 244° |
| 2026-05-07 13:33 | 51.30250 | -0.69513 | 1557 ft | 135 kts | 242° |
| 2026-05-07 13:33 | 51.29829 | -0.70761 | 1293 ft | 120 kts | 242° |
| 2026-05-07 13:33 | 51.29462 | -0.71912 | 1006 ft | 114 kts | 243° |
| 2026-05-07 13:33 | 51.29110 | -0.73026 | 889 ft | 113 kts | 241° |
| 2026-05-07 13:34 | 51.28748 | -0.74162 | 750 ft | 116 kts | 241° |
| 2026-05-07 13:34 | 51.27959 | -0.76512 | 327 ft | 116 kts | 239° |
| 2026-05-07 13:34 | 51.27605 | -0.77577 | 225 ft | 101 kts | 239° |
| 2026-05-07 13:35 | 51.27487 | -0.78016 | 220 ft | 19 kts | 309° |
| 2026-05-07 13:35 | 51.27588 | -0.78148 | 219 ft | 19 kts | 319° |
| 2026-05-07 13:35 | 51.27674 | -0.78195 | 220 ft | 12 kts | 36° |
| 2026-05-07 13:35 | 51.27752 | -0.78104 | 217 ft | 15 kts | 37° |
| 2026-05-07 13:36 | 51.27840 | -0.78006 | 217 ft | 16 kts | 35° |
| 2026-05-07 13:36 | 51.27931 | -0.77904 | 217 ft | 16 kts | 25° |
| 2026-05-07 13:36 | 51.28046 | -0.77870 | 217 ft | 17 kts | 6° |
| 2026-05-07 13:36 | 51.28141 | -0.77864 | 218 ft | 5 kts | 5° |
| 2026-05-07 13:37 | 51.28147 | -0.77861 | 218 ft | 1 kts | 18° |
| 2026-05-07 13:37 | 51.28150 | -0.77835 | 218 ft | 1 kts | 127° |